Kalamazoo METAR

KAZO 300753Z AUTO 34012KT 10SM OVC040 03/M02 A2985 RMK AO2 SLP115 T00331022

Kalamazoo TAF

TAF AMD KAZO 300802Z 3008/0106 34012KT P6SM VCSH SCT025 OVC040 FM300900 34010KT P6SM -RASN BKN025 FM301100 34010KT 6SM -SN BR OVC015 FM301600 34012G22KT P6SM BKN025